EXS151 EGNX-LGKO
Flight info
| Callsign | EXS151 |
|---|---|
| Flight time | N/A |
| Altitude | 37000 |
| Route | DTY M605 FINMA L15 BIG UL9 KONAN UL607 KOK DCT MATUG DCT BOMBI DCT DETEV DCT DINKU DCT BESNI DCT LATLO DCT OBEDI DCT MOSAV DCT GUBOK DCT VABEK UL603 OLOTA DCT DISOR UL608 FSK UG18 MES UN139 LURUS L995 KOPAR |
| Aircraft | A21N/M-SDE2E3FGHIRWXY/LB1 |
Departure
| Time | N/A |
|---|---|
| Airport | East Midlands Airport (EGNX) |
Arrival
| Time | 2026-04-28 20:47 |
|---|---|
| Airport | Kos International Airport "Ippokratis" (LGKO) |
| Time | Latitude | Longitude | Altitude | Speed | Heading |
|---|---|---|---|---|---|
| 2026-04-28 20:01 | 40.50030 | 23.63078 | 37095 ft | 481 kts | 143° |
| 2026-04-28 20:02 | 40.44808 | 23.68585 | 37098 ft | 482 kts | 143° |
| 2026-04-28 20:02 | 40.39579 | 23.74088 | 37100 ft | 482 kts | 143° |
| 2026-04-28 20:03 | 40.34363 | 23.79567 | 37100 ft | 482 kts | 143° |
| 2026-04-28 20:03 | 40.29121 | 23.85061 | 37102 ft | 483 kts | 143° |
| 2026-04-28 20:04 | 40.25214 | 23.89150 | 37102 ft | 483 kts | 143° |
| 2026-04-28 20:04 | 40.19968 | 23.94629 | 37105 ft | 483 kts | 143° |
| 2026-04-28 20:05 | 40.14717 | 24.00102 | 37107 ft | 483 kts | 143° |
| 2026-04-28 20:05 | 40.09458 | 24.05572 | 37111 ft | 483 kts | 143° |
| 2026-04-28 20:06 | 40.04205 | 24.11026 | 37106 ft | 482 kts | 143° |
| 2026-04-28 20:06 | 39.98954 | 24.16466 | 37109 ft | 482 kts | 143° |
| 2026-04-28 20:07 | 39.93705 | 24.21893 | 37113 ft | 481 kts | 143° |
| 2026-04-28 20:07 | 39.88454 | 24.27311 | 37113 ft | 481 kts | 143° |
| 2026-04-28 20:08 | 39.83202 | 24.32719 | 37109 ft | 481 kts | 143° |
| 2026-04-28 20:08 | 39.77950 | 24.38117 | 37111 ft | 481 kts | 143° |
| 2026-04-28 20:09 | 39.72732 | 24.43468 | 37109 ft | 482 kts | 143° |
| 2026-04-28 20:09 | 39.67468 | 24.48856 | 37111 ft | 482 kts | 143° |
| 2026-04-28 20:10 | 39.62200 | 24.54238 | 37107 ft | 482 kts | 143° |
| 2026-04-28 20:10 | 39.56928 | 24.59613 | 37108 ft | 482 kts | 143° |
| 2026-04-28 20:11 | 39.51655 | 24.64978 | 37108 ft | 482 kts | 143° |
| 2026-04-28 20:11 | 39.46380 | 24.70333 | 37101 ft | 482 kts | 143° |
| 2026-04-28 20:12 | 39.41094 | 24.75686 | 37103 ft | 483 kts | 143° |
| 2026-04-28 20:12 | 39.35803 | 24.81033 | 37102 ft | 483 kts | 143° |
| 2026-04-28 20:13 | 39.30513 | 24.86368 | 37102 ft | 483 kts | 143° |
| 2026-04-28 20:13 | 39.25220 | 24.91697 | 37101 ft | 483 kts | 143° |
| 2026-04-28 20:14 | 39.19993 | 24.96950 | 37098 ft | 483 kts | 143° |
| 2026-04-28 20:14 | 39.14691 | 25.02269 | 37101 ft | 483 kts | 143° |
| 2026-04-28 20:15 | 39.09382 | 25.07586 | 37097 ft | 484 kts | 143° |
| 2026-04-28 20:15 | 39.04065 | 25.12902 | 37097 ft | 484 kts | 143° |
| 2026-04-28 20:16 | 38.98747 | 25.18207 | 37094 ft | 484 kts | 143° |
| 2026-04-28 20:16 | 38.93462 | 25.23469 | 37083 ft | 484 kts | 143° |
| 2026-04-28 20:17 | 38.88176 | 25.28721 | 36769 ft | 485 kts | 143° |
| 2026-04-28 20:17 | 38.85558 | 25.31319 | 37300 ft | 477 kts | 143° |
| 2026-04-28 20:17 | 38.82946 | 25.33909 | 37688 ft | 472 kts | 144° |
| 2026-04-28 20:17 | 38.80377 | 25.36451 | 38053 ft | 466 kts | 144° |
| 2026-04-28 20:18 | 38.77819 | 25.38973 | 38407 ft | 461 kts | 144° |
| 2026-04-28 20:18 | 38.76109 | 25.40655 | 38631 ft | 457 kts | 144° |
| 2026-04-28 20:18 | 38.72797 | 25.43899 | 38981 ft | 449 kts | 145° |
| 2026-04-28 20:18 | 38.70324 | 25.46309 | 39192 ft | 444 kts | 145° |
| 2026-04-28 20:19 | 38.67878 | 25.48678 | 39389 ft | 438 kts | 145° |
| 2026-04-28 20:19 | 38.65456 | 25.51010 | 39548 ft | 433 kts | 146° |
| 2026-04-28 20:19 | 38.63057 | 25.53303 | 39704 ft | 428 kts | 146° |
| 2026-04-28 20:20 | 38.58272 | 25.57822 | 39357 ft | 439 kts | 146° |
| 2026-04-28 20:20 | 38.56643 | 25.59343 | 38584 ft | 463 kts | 146° |
| 2026-04-28 20:20 | 38.53950 | 25.61856 | 37537 ft | 491 kts | 144° |
| 2026-04-28 20:20 | 38.51251 | 25.64586 | 37139 ft | 504 kts | 142° |
| 2026-04-28 20:21 | 38.48521 | 25.67437 | 37076 ft | 508 kts | 142° |
| 2026-04-28 20:21 | 38.43057 | 25.73068 | 37443 ft | 500 kts | 143° |
| 2026-04-28 20:21 | 38.40302 | 25.75836 | 37212 ft | 508 kts | 143° |
| 2026-04-28 20:22 | 38.37503 | 25.78599 | 37196 ft | 511 kts | 143° |
| 2026-04-28 20:22 | 38.31843 | 25.84120 | 37342 ft | 512 kts | 144° |
| 2026-04-28 20:23 | 38.26299 | 25.89510 | 37415 ft | 485 kts | 144° |
| 2026-04-28 20:23 | 38.23595 | 25.91992 | 37275 ft | 476 kts | 153° |
| 2026-04-28 20:23 | 38.20621 | 25.93789 | 36507 ft | 472 kts | 162° |
| 2026-04-28 20:23 | 38.17499 | 25.95112 | 35377 ft | 474 kts | 166° |
| 2026-04-28 20:24 | 38.14327 | 25.96247 | 34355 ft | 474 kts | 166° |
| 2026-04-28 20:24 | 38.11149 | 25.97383 | 33226 ft | 474 kts | 165° |
| 2026-04-28 20:24 | 38.07993 | 25.98589 | 32071 ft | 473 kts | 163° |
| 2026-04-28 20:24 | 38.04864 | 25.99873 | 30901 ft | 473 kts | 162° |
| 2026-04-28 20:25 | 38.01749 | 26.01222 | 29635 ft | 473 kts | 161° |
| 2026-04-28 20:25 | 37.98645 | 26.02611 | 28167 ft | 474 kts | 160° |
| 2026-04-28 20:25 | 37.95537 | 26.04025 | 26636 ft | 476 kts | 160° |
| 2026-04-28 20:25 | 37.92416 | 26.05452 | 25111 ft | 478 kts | 160° |
| 2026-04-28 20:26 | 37.89286 | 26.06883 | 23632 ft | 479 kts | 160° |
| 2026-04-28 20:26 | 37.86161 | 26.08306 | 22142 ft | 474 kts | 160° |
| 2026-04-28 20:26 | 37.83079 | 26.09705 | 20824 ft | 466 kts | 160° |
| 2026-04-28 20:26 | 37.80053 | 26.11074 | 19575 ft | 458 kts | 160° |
| 2026-04-28 20:27 | 37.77082 | 26.12416 | 18432 ft | 450 kts | 160° |
| 2026-04-28 20:27 | 37.74139 | 26.13742 | 17578 ft | 449 kts | 160° |
| 2026-04-28 20:27 | 37.71208 | 26.15062 | 17147 ft | 444 kts | 160° |
| 2026-04-28 20:27 | 37.68303 | 26.16369 | 17049 ft | 443 kts | 160° |
| 2026-04-28 20:28 | 37.65403 | 26.17672 | 17046 ft | 442 kts | 160° |
| 2026-04-28 20:28 | 37.62500 | 26.18976 | 17045 ft | 443 kts | 160° |
| 2026-04-28 20:28 | 37.59601 | 26.20277 | 17044 ft | 442 kts | 160° |
| 2026-04-28 20:28 | 37.56709 | 26.21575 | 17042 ft | 442 kts | 160° |
| 2026-04-28 20:29 | 37.53810 | 26.22874 | 17040 ft | 442 kts | 160° |
| 2026-04-28 20:29 | 37.50914 | 26.24171 | 17006 ft | 441 kts | 160° |
| 2026-04-28 20:29 | 37.48203 | 26.25385 | 16495 ft | 432 kts | 160° |
| 2026-04-28 20:29 | 37.45268 | 26.26695 | 15643 ft | 426 kts | 160° |
| 2026-04-28 20:30 | 37.42472 | 26.27943 | 14702 ft | 425 kts | 160° |
| 2026-04-28 20:30 | 37.39695 | 26.29183 | 13900 ft | 422 kts | 160° |
| 2026-04-28 20:30 | 37.36945 | 26.30410 | 13037 ft | 417 kts | 160° |
| 2026-04-28 20:30 | 37.34231 | 26.31621 | 12214 ft | 412 kts | 159° |
| 2026-04-28 20:31 | 37.31549 | 26.32817 | 11547 ft | 403 kts | 159° |
| 2026-04-28 20:31 | 37.28996 | 26.33952 | 11254 ft | 386 kts | 159° |
| 2026-04-28 20:31 | 37.26486 | 26.35067 | 11011 ft | 369 kts | 159° |
| 2026-04-28 20:31 | 37.24108 | 26.36123 | 10533 ft | 360 kts | 159° |
| 2026-04-28 20:32 | 37.21774 | 26.37161 | 9831 ft | 360 kts | 159° |
| 2026-04-28 20:32 | 37.19386 | 26.38224 | 9091 ft | 358 kts | 159° |
| 2026-04-28 20:32 | 37.17079 | 26.39248 | 8400 ft | 355 kts | 159° |
| 2026-04-28 20:32 | 37.14749 | 26.40283 | 7659 ft | 355 kts | 159° |
| 2026-04-28 20:33 | 37.12433 | 26.41310 | 6995 ft | 352 kts | 159° |
| 2026-04-28 20:33 | 37.10139 | 26.42325 | 6349 ft | 348 kts | 159° |
| 2026-04-28 20:33 | 37.07870 | 26.43329 | 5667 ft | 344 kts | 159° |
| 2026-04-28 20:33 | 37.05620 | 26.44323 | 5198 ft | 341 kts | 159° |
| 2026-04-28 20:34 | 37.03381 | 26.45313 | 5030 ft | 341 kts | 159° |
| 2026-04-28 20:34 | 37.01141 | 26.46303 | 5022 ft | 342 kts | 159° |
| 2026-04-28 20:34 | 36.98902 | 26.47293 | 5021 ft | 340 kts | 159° |
| 2026-04-28 20:34 | 36.96671 | 26.48278 | 5020 ft | 340 kts | 159° |
| 2026-04-28 20:35 | 36.94438 | 26.49263 | 5022 ft | 341 kts | 159° |
| 2026-04-28 20:35 | 36.92241 | 26.50369 | 5020 ft | 341 kts | 152° |
| 2026-04-28 20:35 | 36.90228 | 26.51921 | 5014 ft | 340 kts | 140° |
| 2026-04-28 20:35 | 36.88553 | 26.53966 | 5014 ft | 335 kts | 126° |
| 2026-04-28 20:36 | 36.87331 | 26.56416 | 5015 ft | 331 kts | 113° |
| 2026-04-28 20:36 | 36.86373 | 26.59031 | 5016 ft | 331 kts | 111° |
| 2026-04-28 20:36 | 36.85465 | 26.61684 | 4989 ft | 332 kts | 110° |
| 2026-04-28 20:36 | 36.84563 | 26.64341 | 5007 ft | 332 kts | 110° |
| 2026-04-28 20:37 | 36.83662 | 26.66975 | 5012 ft | 331 kts | 111° |
| 2026-04-28 20:37 | 36.82503 | 26.69475 | 5013 ft | 335 kts | 125° |
| 2026-04-28 20:37 | 36.81012 | 26.71707 | 5006 ft | 336 kts | 129° |
| 2026-04-28 20:37 | 36.79437 | 26.73878 | 5006 ft | 337 kts | 130° |
| 2026-04-28 20:38 | 36.77860 | 26.76029 | 4998 ft | 336 kts | 131° |
| 2026-04-28 20:38 | 36.76282 | 26.78186 | 5004 ft | 336 kts | 130° |
| 2026-04-28 20:38 | 36.74709 | 26.80340 | 5002 ft | 335 kts | 131° |
| 2026-04-28 20:38 | 36.73148 | 26.82481 | 5000 ft | 333 kts | 131° |
| 2026-04-28 20:39 | 36.71584 | 26.84627 | 5002 ft | 335 kts | 131° |
| 2026-04-28 20:39 | 36.70047 | 26.86763 | 4997 ft | 336 kts | 127° |
| 2026-04-28 20:39 | 36.68765 | 26.89223 | 4998 ft | 334 kts | 117° |
| 2026-04-28 20:39 | 36.67724 | 26.91753 | 5000 ft | 332 kts | 115° |
| 2026-04-28 20:40 | 36.66707 | 26.94334 | 4995 ft | 332 kts | 115° |
| 2026-04-28 20:40 | 36.65695 | 26.96903 | 4813 ft | 328 kts | 115° |
| 2026-04-28 20:40 | 36.64687 | 26.99444 | 4091 ft | 326 kts | 114° |
| 2026-04-28 20:40 | 36.63681 | 27.01967 | 3443 ft | 324 kts | 115° |
| 2026-04-28 20:41 | 36.62680 | 27.04462 | 3090 ft | 322 kts | 115° |
| 2026-04-28 20:41 | 36.61679 | 27.06952 | 2996 ft | 321 kts | 114° |
| 2026-04-28 20:41 | 36.60679 | 27.09435 | 2997 ft | 320 kts | 114° |
| 2026-04-28 20:41 | 36.59709 | 27.11924 | 2988 ft | 318 kts | 109° |
| 2026-04-28 20:42 | 36.59437 | 27.14480 | 2999 ft | 286 kts | 78° |
| 2026-04-28 20:42 | 36.60029 | 27.16718 | 2995 ft | 262 kts | 64° |
| 2026-04-28 20:42 | 36.60747 | 27.18652 | 2999 ft | 242 kts | 60° |
| 2026-04-28 20:42 | 36.61685 | 27.20261 | 2984 ft | 220 kts | 38° |
| 2026-04-28 20:43 | 36.62989 | 27.21042 | 2988 ft | 206 kts | 7° |
| 2026-04-28 20:43 | 36.64392 | 27.20835 | 2994 ft | 207 kts | 338° |
| 2026-04-28 20:43 | 36.65666 | 27.19982 | 2989 ft | 210 kts | 329° |
| 2026-04-28 20:43 | 36.66898 | 27.18993 | 2948 ft | 211 kts | 328° |
| 2026-04-28 20:44 | 36.68087 | 27.18023 | 2899 ft | 193 kts | 329° |
| 2026-04-28 20:44 | 36.69139 | 27.17170 | 2775 ft | 179 kts | 329° |
| 2026-04-28 20:44 | 36.70150 | 27.16365 | 2430 ft | 177 kts | 330° |
| 2026-04-28 20:44 | 36.71161 | 27.15569 | 2088 ft | 164 kts | 330° |
| 2026-04-28 20:45 | 36.72082 | 27.14846 | 1795 ft | 151 kts | 330° |
| 2026-04-28 20:45 | 36.72961 | 27.14163 | 1521 ft | 148 kts | 330° |
| 2026-04-28 20:45 | 36.73840 | 27.13483 | 1481 ft | 146 kts | 330° |
| 2026-04-28 20:45 | 36.74672 | 27.12837 | 1236 ft | 137 kts | 330° |
| 2026-04-28 20:46 | 36.75470 | 27.12217 | 887 ft | 133 kts | 330° |
| 2026-04-28 20:46 | 36.76220 | 27.11632 | 694 ft | 123 kts | 330° |
| 2026-04-28 20:46 | 36.76942 | 27.11069 | 632 ft | 123 kts | 330° |
| 2026-04-28 20:46 | 36.77668 | 27.10503 | 544 ft | 123 kts | 330° |
| 2026-04-28 20:47 | 36.78389 | 27.09944 | 410 ft | 121 kts | 330° |
| 2026-04-28 20:47 | 36.79067 | 27.09423 | 396 ft | 93 kts | 328° |
| 2026-04-28 20:47 | 36.79395 | 27.09167 | 408 ft | 16 kts | 328° |
| 2026-04-28 20:47 | 36.79506 | 27.09079 | 410 ft | 43 kts | 328° |
| 2026-04-28 20:48 | 36.79806 | 27.08984 | 413 ft | 39 kts | 359° |
| 2026-04-28 20:48 | 36.79980 | 27.08984 | 416 ft | 20 kts | 25° |
| 2026-04-28 20:48 | 36.80012 | 27.09028 | 411 ft | 0 kts | 67° |
| 2026-04-28 20:51 | 36.77295 | 27.10794 | 588 ft | 124 kts | 331° |
| 2026-04-28 20:51 | 36.77799 | 27.10400 | 522 ft | 123 kts | 330° |
| 2026-04-28 20:52 | 36.78677 | 27.09723 | 397 ft | 121 kts | 333° |
| 2026-04-28 20:52 | 36.78887 | 27.09572 | 396 ft | 113 kts | 325° |
| 2026-04-28 20:52 | 36.80012 | 27.09026 | 411 ft | 0 kts | 67° |